sensor_id;sensor_type;location;lat;lon;timestamp;P1;durP1;ratioP1;P2;durP2;ratioP2
18338;SDS011;9295;44.484;11.240;2023-10-13T00:00:31;56.37;;;33.17;;
18338;SDS011;9295;44.484;11.240;2023-10-13T00:03:04;61.00;;;33.40;;
18338;SDS011;9295;44.484;11.240;2023-10-13T00:05:33;53.57;;;32.37;;
18338;SDS011;9295;44.484;11.240;2023-10-13T00:08:02;53.67;;;32.90;;
18338;SDS011;9295;44.484;11.240;2023-10-13T00:10:32;52.43;;;31.90;;
18338;SDS011;9295;44.484;11.240;2023-10-13T00:13:01;49.47;;;30.90;;
18338;SDS011;9295;44.484;11.240;2023-10-13T00:15:41;49.73;;;28.93;;
18338;SDS011;9295;44.484;11.240;2023-10-13T00:18:22;48.60;;;31.00;;
18338;SDS011;9295;44.484;11.240;2023-10-13T00:20:53;46.60;;;29.33;;
18338;SDS011;9295;44.484;11.240;2023-10-13T00:23:23;50.33;;;29.73;;
18338;SDS011;9295;44.484;11.240;2023-10-13T00:25:53;47.27;;;29.10;;
18338;SDS011;9295;44.484;11.240;2023-10-13T00:28:26;41.63;;;28.70;;
18338;SDS011;9295;44.484;11.240;2023-10-13T00:31:04;57.13;;;30.87;;
18338;SDS011;9295;44.484;11.240;2023-10-13T00:33:38;56.57;;;33.17;;
18338;SDS011;9295;44.484;11.240;2023-10-13T00:36:08;53.07;;;30.50;;
18338;SDS011;9295;44.484;11.240;2023-10-13T00:38:44;52.27;;;29.97;;
18338;SDS011;9295;44.484;11.240;2023-10-13T00:41:15;46.67;;;30.83;;
18338;SDS011;9295;44.484;11.240;2023-10-13T00:43:45;47.20;;;29.37;;
18338;SDS011;9295;44.484;11.240;2023-10-13T00:46:33;56.10;;;29.53;;
18338;SDS011;9295;44.484;11.240;2023-10-13T00:49:03;41.73;;;28.00;;
18338;SDS011;9295;44.484;11.240;2023-10-13T00:51:33;47.07;;;30.53;;
18338;SDS011;9295;44.484;11.240;2023-10-13T00:54:02;52.40;;;28.67;;
18338;SDS011;9295;44.484;11.240;2023-10-13T00:56:35;46.50;;;28.77;;
18338;SDS011;9295;44.484;11.240;2023-10-13T00:59:10;53.33;;;27.20;;
18338;SDS011;9295;44.484;11.240;2023-10-13T01:01:41;48.37;;;29.00;;
18338;SDS011;9295;44.484;11.240;2023-10-13T01:04:10;44.43;;;30.37;;
18338;SDS011;9295;44.484;11.240;2023-10-13T01:06:41;51.33;;;30.27;;
18338;SDS011;9295;44.484;11.240;2023-10-13T01:09:09;47.17;;;27.83;;
18338;SDS011;9295;44.484;11.240;2023-10-13T01:11:41;44.73;;;28.43;;
18338;SDS011;9295;44.484;11.240;2023-10-13T01:14:12;53.50;;;30.97;;
18338;SDS011;9295;44.484;11.240;2023-10-13T01:16:46;51.67;;;32.10;;
18338;SDS011;9295;44.484;11.240;2023-10-13T01:19:15;56.80;;;34.20;;
18338;SDS011;9295;44.484;11.240;2023-10-13T01:21:47;57.97;;;34.30;;
18338;SDS011;9295;44.484;11.240;2023-10-13T01:24:16;49.10;;;31.63;;
18338;SDS011;9295;44.484;11.240;2023-10-13T01:26:45;70.97;;;31.30;;
18338;SDS011;9295;44.484;11.240;2023-10-13T01:29:18;47.67;;;30.53;;
18338;SDS011;9295;44.484;11.240;2023-10-13T01:31:53;43.30;;;28.80;;
18338;SDS011;9295;44.484;11.240;2023-10-13T01:34:20;41.93;;;29.07;;
18338;SDS011;9295;44.484;11.240;2023-10-13T01:36:49;57.20;;;28.43;;
18338;SDS011;9295;44.484;11.240;2023-10-13T01:39:20;45.83;;;27.13;;
18338;SDS011;9295;44.484;11.240;2023-10-13T01:41:53;39.57;;;27.03;;
18338;SDS011;9295;44.484;11.240;2023-10-13T01:44:23;47.57;;;25.00;;
18338;SDS011;9295;44.484;11.240;2023-10-13T01:46:55;43.70;;;27.27;;
18338;SDS011;9295;44.484;11.240;2023-10-13T01:49:22;42.90;;;25.60;;
18338;SDS011;9295;44.484;11.240;2023-10-13T01:51:51;41.40;;;26.27;;
18338;SDS011;9295;44.484;11.240;2023-10-13T01:54:20;40.83;;;25.67;;
18338;SDS011;9295;44.484;11.240;2023-10-13T01:56:49;47.00;;;26.70;;
18338;SDS011;9295;44.484;11.240;2023-10-13T01:59:17;46.57;;;26.07;;
18338;SDS011;9295;44.484;11.240;2023-10-13T02:01:46;42.20;;;26.40;;
18338;SDS011;9295;44.484;11.240;2023-10-13T02:04:14;39.13;;;24.03;;
18338;SDS011;9295;44.484;11.240;2023-10-13T02:06:48;41.30;;;25.07;;
18338;SDS011;9295;44.484;11.240;2023-10-13T02:09:15;33.87;;;22.93;;
18338;SDS011;9295;44.484;11.240;2023-10-13T02:11:53;34.90;;;22.77;;
18338;SDS011;9295;44.484;11.240;2023-10-13T02:14:21;38.47;;;22.60;;
18338;SDS011;9295;44.484;11.240;2023-10-13T02:16:53;35.57;;;21.47;;
18338;SDS011;9295;44.484;11.240;2023-10-13T02:19:39;31.37;;;22.17;;
18338;SDS011;9295;44.484;11.240;2023-10-13T02:22:13;29.60;;;19.53;;
18338;SDS011;9295;44.484;11.240;2023-10-13T02:24:54;32.00;;;20.70;;
18338;SDS011;9295;44.484;11.240;2023-10-13T02:27:32;32.20;;;21.53;;
18338;SDS011;9295;44.484;11.240;2023-10-13T02:30:07;31.07;;;21.20;;
18338;SDS011;9295;44.484;11.240;2023-10-13T02:32:41;30.07;;;20.47;;
18338;SDS011;9295;44.484;11.240;2023-10-13T02:35:11;38.60;;;23.10;;
18338;SDS011;9295;44.484;11.240;2023-10-13T02:37:42;35.90;;;22.17;;
18338;SDS011;9295;44.484;11.240;2023-10-13T02:40:11;34.60;;;21.00;;
18338;SDS011;9295;44.484;11.240;2023-10-13T02:42:41;34.27;;;21.07;;
18338;SDS011;9295;44.484;11.240;2023-10-13T02:45:09;35.07;;;21.10;;
18338;SDS011;9295;44.484;11.240;2023-10-13T02:47:39;29.67;;;20.43;;
18338;SDS011;9295;44.484;11.240;2023-10-13T02:50:10;36.87;;;23.80;;
18338;SDS011;9295;44.484;11.240;2023-10-13T02:52:39;35.00;;;21.10;;
18338;SDS011;9295;44.484;11.240;2023-10-13T02:55:09;34.43;;;21.50;;
18338;SDS011;9295;44.484;11.240;2023-10-13T02:57:43;35.10;;;22.27;;
18338;SDS011;9295;44.484;11.240;2023-10-13T03:00:11;32.93;;;21.57;;
18338;SDS011;9295;44.484;11.240;2023-10-13T03:02:43;32.10;;;20.13;;
18338;SDS011;9295;44.484;11.240;2023-10-13T03:05:14;34.63;;;21.20;;
18338;SDS011;9295;44.484;11.240;2023-10-13T03:07:47;34.83;;;22.30;;
18338;SDS011;9295;44.484;11.240;2023-10-13T03:10:17;32.03;;;20.60;;
18338;SDS011;9295;44.484;11.240;2023-10-13T03:12:49;32.20;;;20.60;;
18338;SDS011;9295;44.484;11.240;2023-10-13T03:15:18;33.43;;;20.73;;
18338;SDS011;9295;44.484;11.240;2023-10-13T03:17:48;36.83;;;22.27;;
18338;SDS011;9295;44.484;11.240;2023-10-13T03:20:17;34.63;;;21.43;;
18338;SDS011;9295;44.484;11.240;2023-10-13T03:22:52;36.53;;;21.80;;
18338;SDS011;9295;44.484;11.240;2023-10-13T03:25:20;41.30;;;23.17;;
18338;SDS011;9295;44.484;11.240;2023-10-13T03:27:58;35.20;;;22.63;;
18338;SDS011;9295;44.484;11.240;2023-10-13T03:30:29;37.40;;;22.80;;
18338;SDS011;9295;44.484;11.240;2023-10-13T03:33:02;37.37;;;21.27;;
18338;SDS011;9295;44.484;11.240;2023-10-13T03:35:35;34.90;;;21.97;;
18338;SDS011;9295;44.484;11.240;2023-10-13T03:38:08;30.40;;;21.00;;
18338;SDS011;9295;44.484;11.240;2023-10-13T03:40:49;35.30;;;20.47;;
18338;SDS011;9295;44.484;11.240;2023-10-13T03:43:35;29.67;;;20.90;;
18338;SDS011;9295;44.484;11.240;2023-10-13T03:46:14;34.83;;;19.93;;
18338;SDS011;9295;44.484;11.240;2023-10-13T03:48:48;34.70;;;20.30;;
18338;SDS011;9295;44.484;11.240;2023-10-13T03:51:21;31.97;;;20.90;;
18338;SDS011;9295;44.484;11.240;2023-10-13T03:53:58;32.80;;;20.33;;
18338;SDS011;9295;44.484;11.240;2023-10-13T03:56:34;30.47;;;20.40;;
18338;SDS011;9295;44.484;11.240;2023-10-13T03:59:12;34.63;;;22.13;;
18338;SDS011;9295;44.484;11.240;2023-10-13T04:01:47;35.87;;;21.97;;
18338;SDS011;9295;44.484;11.240;2023-10-13T04:04:26;33.17;;;22.27;;
18338;SDS011;9295;44.484;11.240;2023-10-13T04:07:15;32.80;;;21.97;;
18338;SDS011;9295;44.484;11.240;2023-10-13T04:10:13;37.10;;;21.30;;
18338;SDS011;9295;44.484;11.240;2023-10-13T04:12:59;32.50;;;21.70;;
18338;SDS011;9295;44.484;11.240;2023-10-13T04:15:46;36.17;;;21.87;;
18338;SDS011;9295;44.484;11.240;2023-10-13T04:18:29;33.30;;;22.00;;
18338;SDS011;9295;44.484;11.240;2023-10-13T04:21:14;36.07;;;22.43;;
18338;SDS011;9295;44.484;11.240;2023-10-13T04:24:03;34.70;;;22.30;;
18338;SDS011;9295;44.484;11.240;2023-10-13T04:26:58;36.07;;;22.40;;
18338;SDS011;9295;44.484;11.240;2023-10-13T04:29:43;37.97;;;22.27;;
18338;SDS011;9295;44.484;11.240;2023-10-13T04:32:38;37.90;;;24.47;;
18338;SDS011;9295;44.484;11.240;2023-10-13T04:35:08;34.67;;;23.07;;
18338;SDS011;9295;44.484;11.240;2023-10-13T04:37:44;34.70;;;23.33;;
18338;SDS011;9295;44.484;11.240;2023-10-13T04:40:21;37.00;;;23.37;;
18338;SDS011;9295;44.484;11.240;2023-10-13T04:42:52;34.97;;;22.00;;
18338;SDS011;9295;44.484;11.240;2023-10-13T04:45:20;39.17;;;21.57;;
18338;SDS011;9295;44.484;11.240;2023-10-13T04:48:17;38.40;;;22.50;;
18338;SDS011;9295;44.484;11.240;2023-10-13T04:51:01;31.33;;;21.43;;
18338;SDS011;9295;44.484;11.240;2023-10-13T04:53:52;36.00;;;21.17;;
18338;SDS011;9295;44.484;11.240;2023-10-13T04:56:38;34.70;;;20.33;;
18338;SDS011;9295;44.484;11.240;2023-10-13T04:59:44;38.67;;;22.07;;
18338;SDS011;9295;44.484;11.240;2023-10-13T05:02:31;36.57;;;24.77;;
18338;SDS011;9295;44.484;11.240;2023-10-13T05:05:23;36.30;;;22.10;;
18338;SDS011;9295;44.484;11.240;2023-10-13T05:08:09;36.63;;;22.57;;
18338;SDS011;9295;44.484;11.240;2023-10-13T05:10:55;32.10;;;22.00;;
18338;SDS011;9295;44.484;11.240;2023-10-13T05:13:41;37.10;;;21.73;;
18338;SDS011;9295;44.484;11.240;2023-10-13T05:16:27;31.23;;;20.80;;
18338;SDS011;9295;44.484;11.240;2023-10-13T05:19:13;31.00;;;22.17;;
18338;SDS011;9295;44.484;11.240;2023-10-13T05:22:00;34.47;;;22.23;;
18338;SDS011;9295;44.484;11.240;2023-10-13T05:24:46;32.13;;;21.60;;
18338;SDS011;9295;44.484;11.240;2023-10-13T05:27:32;40.17;;;23.77;;
18338;SDS011;9295;44.484;11.240;2023-10-13T05:30:18;33.67;;;21.90;;
18338;SDS011;9295;44.484;11.240;2023-10-13T05:33:16;32.57;;;22.23;;
18338;SDS011;9295;44.484;11.240;2023-10-13T05:36:17;36.40;;;22.57;;
18338;SDS011;9295;44.484;11.240;2023-10-13T05:39:04;34.40;;;23.00;;
18338;SDS011;9295;44.484;11.240;2023-10-13T05:41:50;38.53;;;25.33;;
18338;SDS011;9295;44.484;11.240;2023-10-13T05:44:36;41.93;;;24.93;;
18338;SDS011;9295;44.484;11.240;2023-10-13T05:47:19;35.23;;;23.13;;
18338;SDS011;9295;44.484;11.240;2023-10-13T05:50:06;39.13;;;23.07;;
18338;SDS011;9295;44.484;11.240;2023-10-13T05:52:55;37.00;;;24.40;;
18338;SDS011;9295;44.484;11.240;2023-10-13T05:55:42;38.57;;;23.00;;
18338;SDS011;9295;44.484;11.240;2023-10-13T05:58:31;41.80;;;23.40;;
18338;SDS011;9295;44.484;11.240;2023-10-13T06:01:16;37.57;;;23.73;;
18338;SDS011;9295;44.484;11.240;2023-10-13T06:04:03;35.50;;;22.67;;
18338;SDS011;9295;44.484;11.240;2023-10-13T06:06:49;37.70;;;22.37;;
18338;SDS011;9295;44.484;11.240;2023-10-13T06:09:35;37.87;;;21.90;;
18338;SDS011;9295;44.484;11.240;2023-10-13T06:12:23;33.70;;;22.10;;
18338;SDS011;9295;44.484;11.240;2023-10-13T06:15:08;40.03;;;22.10;;
18338;SDS011;9295;44.484;11.240;2023-10-13T06:17:54;37.27;;;21.90;;
18338;SDS011;9295;44.484;11.240;2023-10-13T06:20:41;32.10;;;22.07;;
18338;SDS011;9295;44.484;11.240;2023-10-13T06:23:27;33.50;;;21.07;;
18338;SDS011;9295;44.484;11.240;2023-10-13T06:26:13;33.97;;;21.57;;
18338;SDS011;9295;44.484;11.240;2023-10-13T06:29:00;34.60;;;21.60;;
18338;SDS011;9295;44.484;11.240;2023-10-13T06:31:29;37.87;;;21.90;;
18338;SDS011;9295;44.484;11.240;2023-10-13T06:34:01;31.70;;;20.47;;
18338;SDS011;9295;44.484;11.240;2023-10-13T06:36:30;29.87;;;20.63;;
18338;SDS011;9295;44.484;11.240;2023-10-13T06:39:00;35.10;;;20.27;;
18338;SDS011;9295;44.484;11.240;2023-10-13T06:41:42;32.73;;;19.87;;
18338;SDS011;9295;44.484;11.240;2023-10-13T06:44:12;33.60;;;19.50;;
18338;SDS011;9295;44.484;11.240;2023-10-13T06:46:43;36.30;;;19.67;;
18338;SDS011;9295;44.484;11.240;2023-10-13T06:49:12;37.77;;;20.50;;
18338;SDS011;9295;44.484;11.240;2023-10-13T06:51:41;30.37;;;19.33;;
18338;SDS011;9295;44.484;11.240;2023-10-13T06:54:09;33.30;;;20.80;;
18338;SDS011;9295;44.484;11.240;2023-10-13T06:56:46;30.67;;;19.53;;
18338;SDS011;9295;44.484;11.240;2023-10-13T06:59:20;30.53;;;19.50;;
18338;SDS011;9295;44.484;11.240;2023-10-13T07:01:54;34.23;;;19.67;;
18338;SDS011;9295;44.484;11.240;2023-10-13T07:04:42;32.53;;;20.00;;
18338;SDS011;9295;44.484;11.240;2023-10-13T07:07:10;35.63;;;19.90;;
18338;SDS011;9295;44.484;11.240;2023-10-13T07:09:42;32.20;;;18.50;;
18338;SDS011;9295;44.484;11.240;2023-10-13T07:12:16;33.17;;;19.53;;
18338;SDS011;9295;44.484;11.240;2023-10-13T07:14:50;28.10;;;18.20;;
18338;SDS011;9295;44.484;11.240;2023-10-13T07:17:20;32.80;;;18.57;;
18338;SDS011;9295;44.484;11.240;2023-10-13T07:19:52;29.50;;;18.67;;
18338;SDS011;9295;44.484;11.240;2023-10-13T07:22:33;35.97;;;18.80;;
18338;SDS011;9295;44.484;11.240;2023-10-13T07:25:07;34.00;;;20.53;;
18338;SDS011;9295;44.484;11.240;2023-10-13T07:27:36;39.80;;;20.00;;
18338;SDS011;9295;44.484;11.240;2023-10-13T07:30:07;33.00;;;18.43;;
18338;SDS011;9295;44.484;11.240;2023-10-13T07:32:41;26.77;;;17.67;;
18338;SDS011;9295;44.484;11.240;2023-10-13T07:35:14;29.83;;;18.00;;
18338;SDS011;9295;44.484;11.240;2023-10-13T07:37:47;26.70;;;17.77;;
18338;SDS011;9295;44.484;11.240;2023-10-13T07:40:19;27.90;;;18.13;;
18338;SDS011;9295;44.484;11.240;2023-10-13T07:43:06;31.03;;;19.30;;
18338;SDS011;9295;44.484;11.240;2023-10-13T07:45:41;36.07;;;19.10;;
18338;SDS011;9295;44.484;11.240;2023-10-13T07:48:11;30.63;;;18.67;;
18338;SDS011;9295;44.484;11.240;2023-10-13T07:50:46;28.57;;;17.60;;
18338;SDS011;9295;44.484;11.240;2023-10-13T07:53:16;32.00;;;18.50;;
18338;SDS011;9295;44.484;11.240;2023-10-13T07:55:50;29.03;;;16.87;;
18338;SDS011;9295;44.484;11.240;2023-10-13T07:58:22;28.93;;;16.10;;
18338;SDS011;9295;44.484;11.240;2023-10-13T08:00:54;28.87;;;17.20;;
18338;SDS011;9295;44.484;11.240;2023-10-13T08:03:33;32.17;;;16.53;;
18338;SDS011;9295;44.484;11.240;2023-10-13T08:06:12;25.37;;;16.23;;
18338;SDS011;9295;44.484;11.240;2023-10-13T08:08:53;24.13;;;16.13;;
18338;SDS011;9295;44.484;11.240;2023-10-13T08:11:23;30.33;;;17.00;;
18338;SDS011;9295;44.484;11.240;2023-10-13T08:14:01;26.60;;;16.10;;
18338;SDS011;9295;44.484;11.240;2023-10-13T08:16:58;28.00;;;16.73;;
18338;SDS011;9295;44.484;11.240;2023-10-13T08:19:28;26.97;;;16.90;;
18338;SDS011;9295;44.484;11.240;2023-10-13T08:22:09;26.60;;;16.00;;
18338;SDS011;9295;44.484;11.240;2023-10-13T08:24:53;32.90;;;16.27;;
18338;SDS011;9295;44.484;11.240;2023-10-13T08:27:47;28.30;;;15.40;;
18338;SDS011;9295;44.484;11.240;2023-10-13T08:30:51;28.73;;;15.97;;
18338;SDS011;9295;44.484;11.240;2023-10-13T08:33:22;27.33;;;16.23;;
18338;SDS011;9295;44.484;11.240;2023-10-13T08:35:54;30.90;;;16.97;;
18338;SDS011;9295;44.484;11.240;2023-10-13T08:38:44;31.43;;;16.00;;
18338;SDS011;9295;44.484;11.240;2023-10-13T08:41:18;30.07;;;15.73;;
18338;SDS011;9295;44.484;11.240;2023-10-13T08:44:01;38.90;;;17.37;;
18338;SDS011;9295;44.484;11.240;2023-10-13T08:46:36;27.33;;;17.33;;
18338;SDS011;9295;44.484;11.240;2023-10-13T08:49:34;25.93;;;16.47;;
18338;SDS011;9295;44.484;11.240;2023-10-13T08:52:13;35.53;;;16.40;;
18338;SDS011;9295;44.484;11.240;2023-10-13T08:55:01;33.37;;;16.63;;
18338;SDS011;9295;44.484;11.240;2023-10-13T08:57:47;28.43;;;17.30;;
18338;SDS011;9295;44.484;11.240;2023-10-13T09:00:29;29.80;;;16.90;;
18338;SDS011;9295;44.484;11.240;2023-10-13T09:03:12;35.97;;;17.07;;
18338;SDS011;9295;44.484;11.240;2023-10-13T09:06:03;30.93;;;16.60;;
18338;SDS011;9295;44.484;11.240;2023-10-13T09:08:33;38.13;;;17.63;;
18338;SDS011;9295;44.484;11.240;2023-10-13T09:11:25;27.40;;;16.93;;
18338;SDS011;9295;44.484;11.240;2023-10-13T09:13:54;28.63;;;15.30;;
18338;SDS011;9295;44.484;11.240;2023-10-13T09:16:23;27.77;;;15.60;;
18338;SDS011;9295;44.484;11.240;2023-10-13T09:19:06;28.47;;;15.63;;
18338;SDS011;9295;44.484;11.240;2023-10-13T09:21:40;31.63;;;16.67;;
18338;SDS011;9295;44.484;11.240;2023-10-13T09:24:21;30.87;;;16.67;;
18338;SDS011;9295;44.484;11.240;2023-10-13T09:26:54;29.13;;;17.83;;
18338;SDS011;9295;44.484;11.240;2023-10-13T09:29:22;38.93;;;16.93;;
18338;SDS011;9295;44.484;11.240;2023-10-13T09:31:59;35.13;;;18.43;;
18338;SDS011;9295;44.484;11.240;2023-10-13T09:34:29;35.03;;;16.40;;
18338;SDS011;9295;44.484;11.240;2023-10-13T09:37:03;31.23;;;16.97;;
18338;SDS011;9295;44.484;11.240;2023-10-13T09:39:31;31.47;;;15.53;;
18338;SDS011;9295;44.484;11.240;2023-10-13T09:42:12;29.90;;;16.63;;
18338;SDS011;9295;44.484;11.240;2023-10-13T09:44:43;34.00;;;15.30;;
18338;SDS011;9295;44.484;11.240;2023-10-13T09:47:20;31.60;;;15.97;;
18338;SDS011;9295;44.484;11.240;2023-10-13T09:50:01;28.73;;;16.97;;
18338;SDS011;9295;44.484;11.240;2023-10-13T09:52:42;36.90;;;16.70;;
18338;SDS011;9295;44.484;11.240;2023-10-13T09:55:16;29.17;;;16.17;;
18338;SDS011;9295;44.484;11.240;2023-10-13T09:57:51;27.23;;;15.97;;
18338;SDS011;9295;44.484;11.240;2023-10-13T10:00:27;28.97;;;16.97;;
18338;SDS011;9295;44.484;11.240;2023-10-13T10:03:11;31.67;;;17.30;;
18338;SDS011;9295;44.484;11.240;2023-10-13T10:05:56;27.00;;;16.53;;
18338;SDS011;9295;44.484;11.240;2023-10-13T10:08:44;33.17;;;16.13;;
18338;SDS011;9295;44.484;11.240;2023-10-13T10:11:31;31.63;;;15.60;;
18338;SDS011;9295;44.484;11.240;2023-10-13T10:14:23;34.53;;;16.40;;
18338;SDS011;9295;44.484;11.240;2023-10-13T10:17:08;32.97;;;17.17;;
18338;SDS011;9295;44.484;11.240;2023-10-13T10:19:47;36.63;;;16.13;;
18338;SDS011;9295;44.484;11.240;2023-10-13T10:22:24;25.90;;;15.73;;
18338;SDS011;9295;44.484;11.240;2023-10-13T10:25:02;29.90;;;15.83;;
18338;SDS011;9295;44.484;11.240;2023-10-13T10:27:33;27.73;;;15.30;;
18338;SDS011;9295;44.484;11.240;2023-10-13T10:30:02;33.00;;;19.40;;
18338;SDS011;9295;44.484;11.240;2023-10-13T10:32:32;35.73;;;21.90;;
18338;SDS011;9295;44.484;11.240;2023-10-13T10:35:04;32.87;;;19.10;;
18338;SDS011;9295;44.484;11.240;2023-10-13T10:37:36;33.53;;;20.97;;
18338;SDS011;9295;44.484;11.240;2023-10-13T10:40:15;28.47;;;18.73;;
18338;SDS011;9295;44.484;11.240;2023-10-13T10:43:01;36.23;;;22.87;;
18338;SDS011;9295;44.484;11.240;2023-10-13T10:45:55;39.90;;;22.23;;
18338;SDS011;9295;44.484;11.240;2023-10-13T10:48:27;37.10;;;23.23;;
18338;SDS011;9295;44.484;11.240;2023-10-13T10:51:05;47.80;;;21.93;;
18338;SDS011;9295;44.484;11.240;2023-10-13T10:53:48;33.60;;;20.77;;
18338;SDS011;9295;44.484;11.240;2023-10-13T10:56:22;30.77;;;20.70;;
18338;SDS011;9295;44.484;11.240;2023-10-13T10:58:55;40.73;;;22.30;;
18338;SDS011;9295;44.484;11.240;2023-10-13T11:01:28;36.20;;;20.47;;
18338;SDS011;9295;44.484;11.240;2023-10-13T11:04:06;43.13;;;20.77;;
18338;SDS011;9295;44.484;11.240;2023-10-13T11:06:46;34.40;;;21.83;;
18338;SDS011;9295;44.484;11.240;2023-10-13T11:09:22;41.73;;;19.97;;
18338;SDS011;9295;44.484;11.240;2023-10-13T11:12:09;36.27;;;19.20;;
18338;SDS011;9295;44.484;11.240;2023-10-13T11:14:43;28.97;;;18.10;;
18338;SDS011;9295;44.484;11.240;2023-10-13T11:17:18;29.90;;;19.50;;
18338;SDS011;9295;44.484;11.240;2023-10-13T11:19:52;37.07;;;20.50;;
18338;SDS011;9295;44.484;11.240;2023-10-13T11:22:22;30.50;;;18.03;;
18338;SDS011;9295;44.484;11.240;2023-10-13T11:25:08;35.43;;;17.77;;
18338;SDS011;9295;44.484;11.240;2023-10-13T11:27:39;36.70;;;19.30;;
18338;SDS011;9295;44.484;11.240;2023-10-13T11:30:23;29.83;;;18.50;;
18338;SDS011;9295;44.484;11.240;2023-10-13T11:33:09;29.70;;;16.83;;
18338;SDS011;9295;44.484;11.240;2023-10-13T11:35:39;30.93;;;18.70;;
18338;SDS011;9295;44.484;11.240;2023-10-13T11:38:22;36.60;;;18.60;;
18338;SDS011;9295;44.484;11.240;2023-10-13T11:40:56;34.80;;;17.47;;
18338;SDS011;9295;44.484;11.240;2023-10-13T11:43:44;29.37;;;16.03;;
18338;SDS011;9295;44.484;11.240;2023-10-13T11:46:32;34.87;;;18.70;;
18338;SDS011;9295;44.484;11.240;2023-10-13T11:49:18;31.63;;;18.30;;
18338;SDS011;9295;44.484;11.240;2023-10-13T11:51:58;34.50;;;17.23;;
18338;SDS011;9295;44.484;11.240;2023-10-13T11:54:43;31.20;;;15.57;;
18338;SDS011;9295;44.484;11.240;2023-10-13T11:57:14;25.60;;;15.20;;
18338;SDS011;9295;44.484;11.240;2023-10-13T11:59:48;28.97;;;15.30;;
18338;SDS011;9295;44.484;11.240;2023-10-13T12:02:46;29.73;;;14.50;;
18338;SDS011;9295;44.484;11.240;2023-10-13T12:05:32;29.30;;;15.67;;
18338;SDS011;9295;44.484;11.240;2023-10-13T12:08:16;28.93;;;15.90;;
18338;SDS011;9295;44.484;11.240;2023-10-13T12:10:59;28.20;;;17.50;;
18338;SDS011;9295;44.484;11.240;2023-10-13T12:13:48;31.07;;;17.00;;
18338;SDS011;9295;44.484;11.240;2023-10-13T12:16:18;32.90;;;18.60;;
18338;SDS011;9295;44.484;11.240;2023-10-13T12:18:47;28.93;;;18.23;;
18338;SDS011;9295;44.484;11.240;2023-10-13T12:21:20;27.60;;;18.20;;
18338;SDS011;9295;44.484;11.240;2023-10-13T12:23:49;30.50;;;18.17;;
18338;SDS011;9295;44.484;11.240;2023-10-13T12:26:19;26.57;;;17.40;;
18338;SDS011;9295;44.484;11.240;2023-10-13T12:28:58;30.47;;;16.50;;
18338;SDS011;9295;44.484;11.240;2023-10-13T12:31:34;26.87;;;15.30;;
18338;SDS011;9295;44.484;11.240;2023-10-13T12:34:06;24.03;;;17.03;;
18338;SDS011;9295;44.484;11.240;2023-10-13T12:36:45;26.20;;;15.57;;
18338;SDS011;9295;44.484;11.240;2023-10-13T12:39:32;25.33;;;16.00;;
18338;SDS011;9295;44.484;11.240;2023-10-13T12:42:18;31.40;;;15.53;;
18338;SDS011;9295;44.484;11.240;2023-10-13T12:45:04;28.13;;;14.50;;
18338;SDS011;9295;44.484;11.240;2023-10-13T12:47:52;27.77;;;14.57;;
18338;SDS011;9295;44.484;11.240;2023-10-13T12:50:39;22.40;;;13.23;;
18338;SDS011;9295;44.484;11.240;2023-10-13T12:53:11;27.60;;;13.57;;
18338;SDS011;9295;44.484;11.240;2023-10-13T12:55:40;25.33;;;14.20;;
18338;SDS011;9295;44.484;11.240;2023-10-13T12:58:09;22.03;;;14.63;;
18338;SDS011;9295;44.484;11.240;2023-10-13T13:00:38;32.07;;;12.50;;
18338;SDS011;9295;44.484;11.240;2023-10-13T13:03:16;24.50;;;14.53;;
18338;SDS011;9295;44.484;11.240;2023-10-13T13:05:45;29.37;;;14.57;;
18338;SDS011;9295;44.484;11.240;2023-10-13T13:08:14;29.53;;;14.57;;
18338;SDS011;9295;44.484;11.240;2023-10-13T13:10:49;25.43;;;14.20;;
18338;SDS011;9295;44.484;11.240;2023-10-13T13:13:18;24.00;;;13.80;;
18338;SDS011;9295;44.484;11.240;2023-10-13T13:15:51;22.40;;;13.03;;
18338;SDS011;9295;44.484;11.240;2023-10-13T13:18:21;22.80;;;11.63;;
18338;SDS011;9295;44.484;11.240;2023-10-13T13:20:50;22.80;;;12.10;;
18338;SDS011;9295;44.484;11.240;2023-10-13T13:23:21;25.73;;;12.17;;
18338;SDS011;9295;44.484;11.240;2023-10-13T13:25:53;31.13;;;11.50;;
18338;SDS011;9295;44.484;11.240;2023-10-13T13:28:24;28.77;;;12.60;;
18338;SDS011;9295;44.484;11.240;2023-10-13T13:30:56;25.90;;;12.47;;
18338;SDS011;9295;44.484;11.240;2023-10-13T13:33:26;22.50;;;11.67;;
18338;SDS011;9295;44.484;11.240;2023-10-13T13:36:00;24.17;;;13.30;;
18338;SDS011;9295;44.484;11.240;2023-10-13T13:38:31;22.27;;;13.23;;
18338;SDS011;9295;44.484;11.240;2023-10-13T13:41:00;26.67;;;14.80;;
18338;SDS011;9295;44.484;11.240;2023-10-13T13:43:30;25.37;;;14.53;;
18338;SDS011;9295;44.484;11.240;2023-10-13T13:46:05;25.83;;;13.67;;
18338;SDS011;9295;44.484;11.240;2023-10-13T13:48:38;24.17;;;14.50;;
18338;SDS011;9295;44.484;11.240;2023-10-13T13:51:08;25.87;;;13.20;;
18338;SDS011;9295;44.484;11.240;2023-10-13T13:53:46;27.23;;;13.40;;
18338;SDS011;9295;44.484;11.240;2023-10-13T13:56:15;31.37;;;13.90;;
18338;SDS011;9295;44.484;11.240;2023-10-13T13:58:46;30.40;;;14.57;;
18338;SDS011;9295;44.484;11.240;2023-10-13T14:01:15;28.70;;;14.47;;
18338;SDS011;9295;44.484;11.240;2023-10-13T14:03:48;33.30;;;15.13;;
18338;SDS011;9295;44.484;11.240;2023-10-13T14:06:18;34.63;;;15.00;;
18338;SDS011;9295;44.484;11.240;2023-10-13T14:08:51;27.53;;;13.87;;
18338;SDS011;9295;44.484;11.240;2023-10-13T14:11:23;23.87;;;14.17;;
18338;SDS011;9295;44.484;11.240;2023-10-13T14:14:11;30.10;;;15.03;;
18338;SDS011;9295;44.484;11.240;2023-10-13T14:16:56;27.70;;;14.93;;
18338;SDS011;9295;44.484;11.240;2023-10-13T14:19:35;24.80;;;12.10;;
18338;SDS011;9295;44.484;11.240;2023-10-13T14:22:08;21.80;;;11.50;;
18338;SDS011;9295;44.484;11.240;2023-10-13T14:24:40;19.00;;;11.10;;
18338;SDS011;9295;44.484;11.240;2023-10-13T14:27:14;24.50;;;10.77;;
18338;SDS011;9295;44.484;11.240;2023-10-13T14:29:46;28.43;;;12.60;;
18338;SDS011;9295;44.484;11.240;2023-10-13T14:32:15;22.77;;;13.27;;
18338;SDS011;9295;44.484;11.240;2023-10-13T14:34:45;27.10;;;12.43;;
18338;SDS011;9295;44.484;11.240;2023-10-13T14:37:15;25.67;;;13.00;;
18338;SDS011;9295;44.484;11.240;2023-10-13T14:39:53;27.70;;;13.20;;
18338;SDS011;9295;44.484;11.240;2023-10-13T14:42:24;21.70;;;12.20;;
18338;SDS011;9295;44.484;11.240;2023-10-13T14:44:53;22.70;;;11.60;;
18338;SDS011;9295;44.484;11.240;2023-10-13T14:47:27;34.00;;;12.80;;
18338;SDS011;9295;44.484;11.240;2023-10-13T14:49:57;32.13;;;12.33;;
18338;SDS011;9295;44.484;11.240;2023-10-13T14:52:28;22.20;;;11.37;;
18338;SDS011;9295;44.484;11.240;2023-10-13T14:54:59;24.60;;;12.80;;
18338;SDS011;9295;44.484;11.240;2023-10-13T14:57:33;26.80;;;12.10;;
18338;SDS011;9295;44.484;11.240;2023-10-13T15:00:05;20.47;;;11.30;;
18338;SDS011;9295;44.484;11.240;2023-10-13T15:02:43;22.33;;;11.77;;
18338;SDS011;9295;44.484;11.240;2023-10-13T15:05:13;18.50;;;10.80;;
18338;SDS011;9295;44.484;11.240;2023-10-13T15:07:43;22.60;;;10.83;;
18338;SDS011;9295;44.484;11.240;2023-10-13T15:10:12;32.17;;;11.63;;
18338;SDS011;9295;44.484;11.240;2023-10-13T15:12:42;19.80;;;10.30;;
18338;SDS011;9295;44.484;11.240;2023-10-13T15:15:12;29.17;;;11.73;;